createdAt,value
2023-04-12T00:00:38.606Z,9.24
2023-04-12T00:03:10.517Z,9.07
2023-04-12T00:05:39.008Z,9.09
2023-04-12T00:08:11.573Z,8.95
2023-04-12T00:10:40.541Z,8.98
2023-04-12T00:13:08.640Z,8.89
2023-04-12T00:15:46.072Z,8.89
2023-04-12T00:18:14.320Z,8.86
2023-04-12T00:20:43.236Z,8.92
2023-04-12T00:23:17.426Z,8.90
2023-04-12T00:25:45.622Z,8.85
2023-04-12T00:28:14.562Z,8.84
2023-04-12T00:30:43.229Z,8.77
2023-04-12T00:33:11.660Z,8.77
2023-04-12T00:35:39.888Z,8.89
2023-04-12T00:38:10.862Z,8.78
2023-04-12T00:40:42.922Z,8.71
2023-04-12T00:43:15.827Z,8.62
2023-04-12T00:45:45.320Z,8.57
2023-04-12T00:48:21.076Z,8.59
2023-04-12T00:50:50.117Z,8.54
2023-04-12T00:53:18.502Z,8.53
2023-04-12T00:55:46.757Z,8.59
2023-04-12T00:58:16.266Z,8.62
2023-04-12T01:00:50.434Z,8.69
2023-04-12T01:03:28.084Z,8.54
2023-04-12T01:06:09.748Z,8.61
2023-04-12T01:08:41.581Z,8.57
2023-04-12T01:11:39.638Z,8.54
2023-04-12T01:14:10.301Z,8.54
2023-04-12T01:16:51.166Z,8.50
2023-04-12T01:19:36.039Z,8.52
2023-04-12T01:22:32.931Z,8.50
2023-04-12T01:25:16.454Z,8.55
2023-04-12T01:27:53.474Z,8.54
2023-04-12T01:30:21.736Z,8.52
2023-04-12T01:32:53.781Z,8.45
2023-04-12T01:35:24.967Z,8.51
2023-04-12T01:37:54.436Z,8.57
2023-04-12T01:40:22.544Z,8.63
2023-04-12T01:42:50.707Z,8.60
2023-04-12T01:45:24.797Z,8.54
2023-04-12T01:47:55.357Z,8.60
2023-04-12T01:50:27.930Z,8.80
2023-04-12T01:53:05.369Z,8.95
2023-04-12T01:55:33.719Z,8.58
2023-04-12T01:58:03.992Z,8.51
2023-04-12T02:00:32.406Z,8.64
2023-04-12T02:03:03.389Z,8.57
2023-04-12T02:05:34.163Z,8.63
2023-04-12T02:08:02.698Z,8.61
2023-04-12T02:10:40.626Z,8.53
2023-04-12T02:13:08.828Z,8.47
2023-04-12T02:15:39.086Z,8.79
2023-04-12T02:18:11.931Z,9.01
2023-04-12T02:20:44.061Z,8.74
2023-04-12T02:23:12.943Z,8.62
2023-04-12T02:25:41.533Z,8.63
2023-04-12T02:28:10.448Z,8.56
2023-04-12T02:30:45.695Z,8.58
2023-04-12T02:33:15.880Z,8.59
2023-04-12T02:35:44.498Z,8.46
2023-04-12T02:38:14.704Z,8.63
2023-04-12T02:40:43.202Z,9.14
2023-04-12T02:43:15.130Z,9.28
2023-04-12T02:45:47.464Z,9.51
2023-04-12T02:48:19.392Z,9.51
2023-04-12T02:50:47.684Z,8.85
2023-04-12T02:53:22.397Z,8.53
2023-04-12T02:56:09.930Z,8.41
2023-04-12T02:58:39.665Z,8.50
2023-04-12T03:01:13.404Z,8.69
2023-04-12T03:03:57.817Z,8.80
2023-04-12T03:06:52.480Z,8.92
2023-04-12T03:09:24.828Z,8.54
2023-04-12T03:11:53.575Z,8.57
2023-04-12T03:14:24.426Z,8.56
2023-04-12T03:16:54.307Z,8.65
2023-04-12T03:19:22.795Z,8.76
2023-04-12T03:22:00.110Z,9.26
2023-04-12T03:24:29.596Z,9.27
2023-04-12T03:26:58.320Z,9.16
2023-04-12T03:29:26.797Z,9.12
2023-04-12T03:31:59.725Z,9.12
2023-04-12T03:34:35.271Z,8.74
2023-04-12T03:37:11.140Z,8.99
2023-04-12T03:39:48.195Z,9.07
2023-04-12T03:42:32.164Z,9.12
2023-04-12T03:45:04.653Z,8.87
2023-04-12T03:47:33.392Z,9.17
2023-04-12T03:50:11.448Z,9.66
2023-04-12T03:52:41.062Z,9.93
2023-04-12T03:55:11.987Z,9.56
2023-04-12T03:57:40.393Z,9.85
2023-04-12T04:00:10.357Z,9.86
2023-04-12T04:03:09.748Z,9.87
2023-04-12T04:05:48.457Z,9.80
2023-04-12T04:08:18.796Z,10.02
2023-04-12T04:10:56.460Z,9.93
2023-04-12T04:13:34.084Z,10.17
2023-04-12T04:16:10.057Z,9.96
2023-04-12T04:18:38.634Z,10.01
2023-04-12T04:21:16.589Z,10.04
2023-04-12T04:23:45.528Z,10.07
2023-04-12T04:26:20.446Z,10.27
2023-04-12T04:29:05.298Z,10.26
2023-04-12T04:31:39.038Z,10.31
2023-04-12T04:34:09.485Z,10.53
2023-04-12T04:36:44.722Z,10.03
2023-04-12T04:39:23.505Z,10.27
2023-04-12T04:41:55.178Z,9.71
2023-04-12T04:44:45.598Z,9.65
2023-04-12T04:47:14.530Z,9.76
2023-04-12T04:49:45.320Z,9.73
2023-04-12T04:52:39.032Z,9.65
2023-04-12T04:55:12.645Z,9.83
2023-04-12T04:58:15.297Z,9.69
2023-04-12T05:00:45.262Z,9.78
2023-04-12T05:03:15.541Z,9.63
2023-04-12T05:05:49.133Z,9.73
2023-04-12T05:08:19.447Z,9.96
2023-04-12T05:10:53.531Z,9.99
2023-04-12T05:13:24.821Z,9.98
2023-04-12T05:15:53.321Z,9.93
2023-04-12T05:18:26.393Z,9.92
2023-04-12T05:20:55.006Z,9.98
2023-04-12T05:23:23.255Z,10.15
2023-04-12T05:26:00.680Z,10.23
2023-04-12T05:28:32.162Z,10.17
2023-04-12T05:31:01.845Z,10.33
2023-04-12T05:33:45.129Z,10.60
2023-04-12T05:36:15.030Z,10.87
2023-04-12T05:38:56.211Z,10.88
2023-04-12T05:41:26.111Z,10.40
2023-04-12T05:43:54.649Z,10.30
2023-04-12T05:46:31.645Z,10.53
2023-04-12T05:48:59.885Z,10.57
2023-04-12T05:51:41.042Z,10.68
2023-04-12T05:54:15.981Z,10.60
2023-04-12T05:56:44.252Z,10.41
2023-04-12T05:59:27.622Z,10.32
2023-04-12T06:01:56.256Z,9.99
2023-04-12T06:04:34.952Z,10.25
2023-04-12T06:07:19.636Z,10.13
2023-04-12T06:09:50.015Z,10.34
2023-04-12T06:12:18.911Z,11.23
2023-04-12T06:14:49.815Z,11.52
2023-04-12T06:17:18.845Z,11.45
2023-04-12T06:19:47.592Z,10.92
2023-04-12T06:22:17.900Z,10.17
2023-04-12T06:24:49.668Z,10.47
2023-04-12T06:27:20.681Z,10.50
2023-04-12T06:29:49.693Z,10.52
2023-04-12T06:32:19.318Z,10.37
2023-04-12T06:34:49.842Z,10.26
2023-04-12T06:37:18.458Z,10.44
2023-04-12T06:39:47.061Z,10.37
2023-04-12T06:42:15.784Z,10.21
2023-04-12T06:44:44.449Z,10.31
2023-04-12T06:47:17.126Z,10.16
2023-04-12T06:49:45.356Z,10.27
2023-04-12T06:52:13.567Z,10.30
2023-04-12T06:54:44.137Z,10.45
2023-04-12T06:57:12.400Z,10.53
2023-04-12T06:59:45.911Z,10.39
2023-04-12T07:02:14.051Z,10.33
2023-04-12T07:04:42.259Z,10.21
2023-04-12T07:07:12.513Z,10.43
2023-04-12T07:09:40.800Z,10.37
2023-04-12T07:12:08.918Z,10.38
2023-04-12T07:14:38.826Z,10.48
2023-04-12T07:17:08.194Z,10.50
2023-04-12T07:19:36.454Z,10.51
2023-04-12T07:22:12.527Z,10.77
2023-04-12T07:24:42.258Z,10.81
2023-04-12T07:27:11.299Z,10.59
2023-04-12T07:29:39.581Z,10.60
2023-04-12T07:32:08.338Z,10.77
2023-04-12T07:34:37.017Z,10.73
2023-04-12T07:37:06.291Z,10.85
2023-04-12T07:39:36.339Z,10.72
2023-04-12T07:42:16.067Z,10.74
2023-04-12T07:44:44.315Z,11.50
2023-04-12T07:47:12.472Z,11.56
2023-04-12T07:49:40.962Z,11.75
2023-04-12T07:52:09.838Z,11.68
2023-04-12T07:54:48.188Z,12.18
2023-04-12T07:57:16.511Z,12.35
2023-04-12T07:59:44.653Z,12.37
2023-04-12T08:02:13.066Z,12.16
2023-04-12T08:04:44.448Z,12.08
2023-04-12T08:07:17.785Z,12.35
2023-04-12T08:09:48.769Z,12.17
2023-04-12T08:12:17.850Z,12.09
2023-04-12T08:14:46.826Z,11.56
2023-04-12T08:17:16.919Z,11.77
2023-04-12T08:19:47.546Z,10.99
2023-04-12T08:22:20.282Z,11.31
2023-04-12T08:24:53.527Z,11.08
2023-04-12T08:30:41.034Z,11.44
2023-04-12T08:33:41.290Z,11.18
2023-04-12T08:36:12.635Z,10.26
2023-04-12T08:38:46.722Z,10.38
2023-04-12T08:41:19.978Z,10.48
2023-04-12T08:43:49.748Z,10.24
2023-04-12T08:46:25.030Z,10.34
2023-04-12T08:48:57.814Z,10.44
2023-04-12T08:51:33.531Z,11.44
2023-04-12T08:54:10.832Z,12.32
2023-04-12T08:56:42.786Z,12.64
2023-04-12T08:59:37.933Z,12.89
2023-04-12T09:05:12.459Z,13.03
2023-04-12T09:07:46.555Z,11.91
2023-04-12T09:10:38.233Z,11.65
2023-04-12T09:13:11.765Z,11.80
2023-04-12T09:15:50.285Z,11.87
2023-04-12T09:18:29.084Z,11.77
2023-04-12T09:21:19.959Z,12.09
2023-04-12T09:24:04.945Z,12.17
2023-04-12T09:26:37.989Z,12.26
2023-04-12T09:29:11.298Z,12.22
2023-04-12T09:31:41.973Z,11.92
2023-04-12T09:34:14.400Z,12.08
2023-04-12T09:36:42.935Z,12.30
2023-04-12T09:39:35.082Z,11.96
2023-04-12T09:42:33.427Z,11.40
2023-04-12T09:45:24.126Z,11.36
2023-04-12T09:47:56.115Z,11.48
2023-04-12T09:50:34.852Z,11.50
2023-04-12T09:53:18.213Z,11.13
2023-04-12T09:56:10.957Z,11.38
2023-04-12T09:58:39.281Z,11.44
2023-04-12T10:01:11.776Z,11.58
2023-04-12T10:03:55.008Z,11.81
2023-04-12T10:06:27.329Z,11.87
2023-04-12T10:08:58.198Z,12.15
2023-04-12T10:11:29.652Z,12.19
2023-04-12T10:14:04.997Z,11.41
2023-04-12T10:16:36.012Z,11.35
2023-04-12T10:19:12.251Z,11.63
2023-04-12T10:21:40.863Z,11.39
2023-04-12T10:24:32.896Z,11.31
2023-04-12T10:27:04.216Z,11.54
2023-04-12T10:29:38.309Z,11.51
2023-04-12T10:32:23.010Z,11.75
2023-04-12T10:34:57.730Z,11.91
2023-04-12T10:38:07.629Z,11.81
2023-04-12T10:40:42.873Z,11.85
2023-04-12T10:43:29.552Z,11.81
2023-04-12T10:46:04.356Z,11.83
2023-04-12T10:48:40.274Z,11.72
2023-04-12T10:51:29.772Z,11.69
2023-04-12T10:55:26.909Z,11.79
2023-04-12T10:58:53.438Z,12.21
2023-04-12T11:02:07.964Z,12.44
2023-04-12T11:04:47.021Z,12.58
2023-04-12T11:07:23.112Z,12.25
2023-04-12T11:10:16.377Z,12.24
2023-04-12T11:12:55.024Z,12.26
2023-04-12T11:15:27.609Z,12.49
2023-04-12T11:18:01.233Z,12.43
2023-04-12T11:20:34.971Z,12.59
2023-04-12T11:23:11.598Z,12.32
2023-04-12T11:25:53.090Z,11.20
2023-04-12T11:28:29.810Z,11.17
2023-04-12T11:31:05.274Z,11.75
2023-04-12T11:33:39.336Z,11.79
2023-04-12T11:36:15.017Z,12.07
2023-04-12T11:38:56.598Z,11.97
2023-04-12T11:42:04.634Z,11.57
2023-04-12T11:45:05.658Z,11.11
2023-04-12T11:47:54.678Z,10.97
2023-04-12T11:50:37.546Z,10.92
2023-04-12T11:53:15.214Z,11.34
2023-04-12T11:55:50.508Z,11.20
2023-04-12T11:58:24.574Z,10.96
2023-04-12T12:01:21.854Z,10.99
2023-04-12T12:04:03.581Z,10.87
2023-04-12T12:06:59.594Z,10.86
2023-04-12T12:09:31.768Z,11.52
2023-04-12T12:12:03.213Z,11.91
2023-04-12T12:15:18.842Z,11.81
2023-04-12T12:20:54.790Z,11.72
2023-04-12T12:23:39.081Z,11.40
2023-04-12T12:26:28.664Z,11.26
2023-04-12T12:32:23.647Z,11.48
2023-04-12T12:35:06.073Z,11.73
2023-04-12T12:39:14.905Z,11.61
2023-04-12T12:46:31.489Z,12.01
2023-04-12T12:51:16.953Z,11.78
2023-04-12T12:58:55.597Z,11.59
2023-04-12T13:05:37.449Z,11.79
2023-04-12T13:08:11.717Z,11.67
2023-04-12T13:14:25.526Z,11.64
2023-04-12T13:16:55.065Z,11.70
2023-04-12T13:19:22.197Z,11.82
2023-04-12T13:21:55.613Z,11.93
2023-04-12T13:24:27.341Z,12.13
2023-04-12T13:27:36.705Z,11.91
2023-04-12T13:30:32.555Z,12.13
2023-04-12T13:33:19.949Z,12.22
2023-04-12T13:35:56.641Z,12.11
2023-04-12T13:41:12.190Z,12.00
2023-04-12T13:43:47.602Z,12.25
2023-04-12T13:46:18.660Z,12.29
2023-04-12T13:48:48.659Z,12.06
2023-04-12T13:51:21.459Z,11.88
2023-04-12T13:53:57.899Z,11.97
2023-04-12T13:56:29.578Z,12.06
2023-04-12T13:59:01.102Z,11.99
2023-04-12T14:01:35.073Z,11.95
2023-04-12T14:04:05.339Z,11.96
2023-04-12T14:06:44.144Z,12.20
2023-04-12T14:09:35.954Z,12.14
2023-04-12T14:12:09.421Z,11.84
2023-04-12T14:14:42.661Z,12.01
2023-04-12T14:17:28.928Z,12.10
2023-04-12T14:19:57.375Z,12.06
2023-04-12T14:22:26.706Z,12.39
2023-04-12T14:25:14.762Z,12.29
2023-04-12T14:27:42.911Z,12.36
2023-04-12T14:30:11.159Z,12.33
2023-04-12T14:32:41.782Z,12.19
2023-04-12T14:35:15.418Z,12.11
2023-04-12T14:37:46.383Z,12.07
2023-04-12T14:40:25.292Z,12.14
2023-04-12T14:42:53.754Z,12.07
2023-04-12T14:45:26.096Z,11.91
2023-04-12T14:47:54.731Z,11.94
2023-04-12T14:50:24.169Z,12.09
2023-04-12T14:52:54.542Z,12.05
2023-04-12T14:55:23.393Z,12.06
2023-04-12T14:57:51.462Z,12.14
2023-04-12T15:00:20.970Z,12.22
2023-04-12T15:02:50.373Z,12.39
2023-04-12T15:05:18.966Z,12.37
2023-04-12T15:08:01.271Z,12.20
2023-04-12T15:10:31.816Z,12.18
2023-04-12T15:13:00.398Z,12.29
2023-04-12T15:15:39.619Z,12.18
2023-04-12T15:18:13.894Z,12.25
2023-04-12T15:20:42.206Z,12.22
2023-04-12T15:23:30.583Z,12.21
2023-04-12T15:26:03.849Z,12.34
2023-04-12T15:28:32.911Z,12.35
2023-04-12T15:31:02.731Z,12.08
2023-04-12T15:33:37.542Z,11.61
2023-04-12T15:36:22.153Z,11.23
2023-04-12T15:39:28.090Z,11.32
2023-04-12T15:42:23.403Z,11.62
2023-04-12T15:44:52.214Z,11.33
2023-04-12T15:47:20.912Z,11.28
2023-04-12T15:49:50.091Z,11.37
2023-04-12T15:52:25.952Z,11.59
2023-04-12T15:56:18.530Z,11.65
2023-04-12T15:59:07.433Z,11.57
2023-04-12T16:02:00.485Z,11.48
2023-04-12T16:04:33.564Z,11.38
2023-04-12T16:07:05.941Z,11.47
2023-04-12T16:10:21.200Z,11.48
2023-04-12T16:12:50.494Z,11.49
2023-04-12T16:15:43.902Z,11.39
2023-04-12T16:18:17.190Z,11.39
2023-04-12T16:20:49.472Z,11.64
2023-04-12T16:23:17.782Z,11.85
2023-04-12T16:25:51.453Z,11.69
2023-04-12T16:28:21.041Z,11.56
2023-04-12T16:30:52.835Z,11.56
2023-04-12T16:33:45.377Z,11.72
2023-04-12T16:36:17.765Z,11.82
2023-04-12T16:38:46.837Z,11.85
2023-04-12T16:41:17.563Z,11.96
2023-04-12T16:43:46.328Z,11.76
2023-04-12T16:46:15.651Z,11.82
2023-04-12T16:48:47.291Z,11.98
2023-04-12T16:51:42.507Z,11.79
2023-04-12T16:54:11.647Z,11.71
2023-04-12T16:56:43.241Z,11.84
2023-04-12T17:02:00.955Z,11.84
2023-04-12T17:04:30.207Z,11.86
2023-04-12T17:06:59.479Z,11.75
2023-04-12T17:09:28.584Z,11.76
2023-04-12T17:11:57.348Z,11.88
2023-04-12T17:14:37.516Z,11.77
2023-04-12T17:17:16.836Z,11.88
2023-04-12T17:19:45.639Z,12.00
2023-04-12T17:22:13.792Z,11.89
2023-04-12T17:24:45.646Z,11.84
2023-04-12T17:27:14.746Z,11.87
2023-04-12T17:29:43.611Z,11.94
2023-04-12T17:32:20.254Z,11.89
2023-04-12T17:34:54.814Z,11.94
2023-04-12T17:37:25.109Z,11.94
2023-04-12T17:40:20.613Z,12.00
2023-04-12T17:42:52.567Z,11.80
2023-04-12T17:45:22.045Z,11.78
2023-04-12T17:48:24.138Z,11.88
2023-04-12T17:50:53.437Z,11.97
2023-04-12T17:53:26.582Z,12.07
2023-04-12T17:55:56.540Z,11.93
2023-04-12T17:58:59.731Z,11.90
2023-04-12T18:01:52.122Z,11.46
2023-04-12T18:04:24.409Z,11.38
2023-04-12T18:06:57.342Z,11.38
2023-04-12T18:09:27.696Z,11.27
2023-04-12T18:11:59.905Z,11.59
2023-04-12T18:14:28.564Z,11.53
2023-04-12T18:19:57.202Z,11.50
2023-04-12T18:22:25.689Z,11.37
2023-04-12T18:24:56.061Z,11.50
2023-04-12T18:27:26.587Z,11.68
2023-04-12T18:29:56.918Z,11.94
2023-04-12T18:32:25.065Z,12.00
2023-04-12T18:34:54.630Z,11.80
2023-04-12T18:37:22.848Z,11.80
2023-04-12T18:39:53.479Z,11.62
2023-04-12T18:42:23.124Z,11.95
2023-04-12T18:44:53.130Z,11.76
2023-04-12T18:47:22.679Z,12.31
2023-04-12T18:49:51.022Z,12.28
2023-04-12T18:52:19.775Z,12.26
2023-04-12T18:54:49.924Z,12.34
2023-04-12T18:57:18.642Z,12.16
2023-04-12T18:59:49.427Z,12.58
2023-04-12T19:02:19.891Z,12.51
2023-04-12T19:04:48.879Z,12.52
2023-04-12T19:07:17.478Z,12.45
2023-04-12T19:09:47.056Z,12.42
2023-04-12T19:12:15.769Z,12.70
2023-04-12T19:14:44.648Z,12.36
2023-04-12T19:17:12.762Z,12.40
2023-04-12T19:19:41.734Z,12.51
2023-04-12T19:22:10.115Z,12.81
2023-04-12T19:24:39.735Z,12.85
2023-04-12T19:27:09.202Z,12.88
2023-04-12T19:29:37.721Z,13.17
2023-04-12T19:32:07.268Z,13.33
2023-04-12T19:34:35.690Z,13.35
2023-04-12T19:37:03.851Z,12.86
2023-04-12T19:39:34.275Z,13.02
2023-04-12T19:42:03.563Z,13.27
2023-04-12T19:44:33.989Z,13.16
2023-04-12T19:47:03.501Z,13.27
2023-04-12T19:49:33.472Z,13.45
2023-04-12T19:52:05.519Z,12.71
2023-04-12T19:54:35.848Z,12.11
2023-04-12T19:57:07.714Z,12.70
2023-04-12T19:59:37.002Z,12.67
2023-04-12T20:02:07.048Z,12.74
2023-04-12T20:04:36.338Z,12.67
2023-04-12T20:07:05.751Z,12.47
2023-04-12T20:09:34.502Z,12.33
2023-04-12T20:12:03.940Z,12.50
2023-04-12T20:14:37.245Z,12.57
2023-04-12T20:17:06.387Z,12.68
2023-04-12T20:19:34.633Z,12.45
2023-04-12T20:22:06.330Z,12.53
2023-04-12T20:24:34.987Z,12.78
2023-04-12T20:27:03.997Z,12.60
2023-04-12T20:29:35.029Z,12.57
2023-04-12T20:32:04.570Z,12.34
2023-04-12T20:34:34.325Z,12.38
2023-04-12T20:37:03.001Z,12.51
2023-04-12T20:39:31.181Z,12.46
2023-04-12T20:42:01.401Z,12.41
2023-04-12T20:44:30.039Z,12.63
2023-04-12T20:47:18.111Z,12.75
2023-04-12T20:49:47.112Z,12.70
2023-04-12T20:52:20.411Z,12.91
2023-04-12T20:54:48.666Z,12.90
2023-04-12T20:57:20.119Z,12.67
2023-04-12T20:59:51.607Z,12.81
2023-04-12T21:02:20.334Z,12.77
2023-04-12T21:04:48.858Z,12.84
2023-04-12T21:07:20.441Z,12.71
2023-04-12T21:09:49.060Z,12.82
2023-04-12T21:12:18.421Z,12.89
2023-04-12T21:14:57.610Z,12.89
2023-04-12T21:17:27.489Z,12.60
2023-04-12T21:19:56.258Z,12.37
2023-04-12T21:22:26.824Z,12.53
2023-04-12T21:24:55.889Z,12.56
2023-04-12T21:27:24.027Z,12.85
2023-04-12T21:29:52.086Z,12.87
2023-04-12T21:32:21.820Z,13.00
2023-04-12T21:34:51.323Z,13.01
2023-04-12T21:37:22.238Z,12.84
2023-04-12T21:39:50.619Z,12.83
2023-04-12T21:42:29.637Z,12.84
2023-04-12T21:44:58.798Z,12.59
2023-04-12T21:47:27.198Z,12.54
2023-04-12T21:49:55.779Z,12.70
2023-04-12T21:52:24.307Z,12.64
2023-04-12T21:54:54.353Z,12.52
2023-04-12T21:57:22.481Z,12.50
2023-04-12T21:59:51.164Z,12.68
2023-04-12T22:02:19.529Z,12.60
2023-04-12T22:04:47.996Z,12.65
2023-04-12T22:07:17.729Z,12.65
2023-04-12T22:09:46.152Z,12.89
2023-04-12T22:12:20.599Z,12.85
2023-04-12T22:14:58.588Z,12.77
2023-04-12T22:17:26.917Z,12.69
2023-04-12T22:19:56.703Z,12.97
2023-04-12T22:22:26.051Z,12.68
2023-04-12T22:24:54.379Z,12.47
2023-04-12T22:27:26.527Z,12.22
2023-04-12T22:29:58.629Z,11.92
2023-04-12T22:32:27.986Z,12.01
2023-04-12T22:35:05.180Z,12.03
2023-04-12T22:37:39.162Z,11.91
2023-04-12T22:40:14.100Z,12.01
2023-04-12T22:42:48.438Z,12.00
2023-04-12T22:45:19.940Z,12.18
2023-04-12T22:47:48.355Z,11.97
2023-04-12T22:50:17.585Z,12.02
2023-04-12T22:52:49.983Z,11.84
2023-04-12T22:55:18.720Z,11.96
2023-04-12T22:57:53.207Z,12.05
2023-04-12T23:00:25.133Z,12.03
2023-04-12T23:05:22.142Z,12.08
2023-04-12T23:07:53.296Z,12.29
2023-04-12T23:10:22.487Z,12.22
2023-04-12T23:12:53.617Z,12.29
2023-04-12T23:15:24.229Z,12.31
2023-04-12T23:17:52.380Z,12.48
2023-04-12T23:20:20.525Z,12.44
2023-04-12T23:22:57.304Z,12.34
2023-04-12T23:25:41.867Z,12.34
2023-04-12T23:28:15.361Z,12.17
2023-04-12T23:30:49.891Z,12.15
2023-04-12T23:33:21.633Z,12.12
2023-04-12T23:35:52.658Z,12.29
2023-04-12T23:38:24.556Z,12.41
2023-04-12T23:40:56.235Z,12.30
2023-04-12T23:43:25.130Z,12.02
2023-04-12T23:45:55.441Z,11.86
2023-04-12T23:48:24.422Z,11.86
2023-04-12T23:50:52.716Z,11.69
2023-04-12T23:53:23.877Z,11.89
2023-04-12T23:55:53.554Z,11.74
2023-04-12T23:58:21.977Z,11.89
